createdAt,value
2023-04-19T00:00:08.607Z,101958.31
2023-04-19T00:00:33.212Z,101949.41
2023-04-19T00:01:05.262Z,101927.63
2023-04-19T00:01:28.346Z,101938.97
2023-04-19T00:01:50.170Z,101959.25
2023-04-19T00:02:11.849Z,101953.03
2023-04-19T00:02:34.239Z,101957.47
2023-04-19T00:02:57.250Z,101950.47
2023-04-19T00:03:19.202Z,101947.78
2023-04-19T00:03:41.045Z,101949.63
2023-04-19T00:04:03.565Z,101948.75
2023-04-19T00:04:26.920Z,101948.75
2023-04-19T00:04:48.837Z,101949.69
2023-04-19T00:05:11.947Z,101948.75
2023-04-19T00:05:33.783Z,101952.31
2023-04-19T00:05:59.074Z,101944.25
2023-04-19T00:06:21.027Z,101956.75
2023-04-19T00:06:42.579Z,101944.22
2023-04-19T00:07:04.569Z,101951.25
2023-04-19T00:07:27.227Z,101940.53
2023-04-19T00:07:48.800Z,101952.31
2023-04-19T00:08:10.560Z,101942.47
2023-04-19T00:08:32.265Z,101951.34
2023-04-19T00:08:54.904Z,101947.06
2023-04-19T00:09:16.559Z,101949.63
2023-04-19T00:09:38.314Z,101946.03
2023-04-19T00:09:59.981Z,101956.56
2023-04-19T00:10:21.578Z,101943.22
2023-04-19T00:10:44.218Z,101944.19
2023-04-19T00:11:05.894Z,101948.91
2023-04-19T00:11:27.528Z,101947.53
2023-04-19T00:11:49.173Z,101944.06
2023-04-19T00:12:10.873Z,101943.88
2023-04-19T00:12:33.605Z,101947.16
2023-04-19T00:12:55.529Z,101951.59
2023-04-19T00:13:17.176Z,101944.34
2023-04-19T00:13:38.844Z,101941.34
2023-04-19T00:14:01.424Z,101943.75
2023-04-19T00:14:23.010Z,101944.72
2023-04-19T00:14:46.111Z,101949.03
2023-04-19T00:15:08.553Z,101948.03
2023-04-19T00:15:31.126Z,101942.50
2023-04-19T00:15:52.729Z,101944.19
2023-04-19T00:16:14.365Z,101949.69
2023-04-19T00:16:36.806Z,101950.72
2023-04-19T00:16:58.650Z,101948.97
2023-04-19T00:17:21.261Z,101947.09
2023-04-19T00:17:43.264Z,101941.72
2023-04-19T00:18:05.037Z,101946.06
2023-04-19T00:18:26.746Z,101942.78
2023-04-19T00:18:49.327Z,101947.03
2023-04-19T00:19:11.307Z,101943.63
2023-04-19T00:19:33.001Z,101946.50
2023-04-19T00:19:54.637Z,101948.91
2023-04-19T00:20:17.179Z,101951.44
2023-04-19T00:20:38.993Z,101932.34
2023-04-19T00:21:00.723Z,101942.63
2023-04-19T00:21:22.478Z,101945.19
2023-04-19T00:21:45.046Z,101945.97
2023-04-19T00:22:06.666Z,101937.16
2023-04-19T00:22:28.329Z,101945.06
2023-04-19T00:22:50.058Z,101945.47
2023-04-19T00:23:12.599Z,101952.44
2023-04-19T00:23:34.565Z,101948.69
2023-04-19T00:23:56.217Z,101944.72
2023-04-19T00:24:18.002Z,101944.72
2023-04-19T00:24:40.783Z,101941.75
2023-04-19T00:25:02.655Z,101940.81
2023-04-19T00:25:24.607Z,101944.25
2023-04-19T00:25:46.469Z,101943.34
2023-04-19T00:26:08.117Z,101945.19
2023-04-19T00:26:30.741Z,101932.84
2023-04-19T00:26:52.513Z,101941.59
2023-04-19T00:27:14.188Z,101944.34
2023-04-19T00:27:36.350Z,101937.22
2023-04-19T00:28:38.751Z,101940.88
2023-04-19T00:29:00.586Z,101945.25
2023-04-19T00:29:22.237Z,101942.50
2023-04-19T00:29:43.952Z,101944.25
2023-04-19T00:30:09.099Z,101932.84
2023-04-19T00:30:31.030Z,101943.38
2023-04-19T00:30:53.166Z,101945.19
2023-04-19T00:31:14.909Z,101939.06
2023-04-19T00:31:39.652Z,101947.81
2023-04-19T00:32:01.560Z,101946.91
2023-04-19T00:32:23.238Z,101927.59
2023-04-19T00:32:45.573Z,101946.91
2023-04-19T00:33:12.739Z,101944.22
2023-04-19T00:33:34.683Z,101935.31
2023-04-19T00:33:56.696Z,101924.91
2023-04-19T00:34:20.862Z,101950.50
2023-04-19T00:34:42.770Z,101942.47
2023-04-19T00:35:05.805Z,101940.72
2023-04-19T00:35:27.613Z,101939.91
2023-04-19T00:35:49.290Z,101945.16
2023-04-19T00:36:10.977Z,101947.78
2023-04-19T00:36:34.812Z,101943.34
2023-04-19T00:36:56.783Z,101938.31
2023-04-19T00:37:18.437Z,101940.00
2023-04-19T00:37:40.071Z,101940.81
2023-04-19T00:38:01.666Z,101932.66
2023-04-19T00:38:24.520Z,101938.09
2023-04-19T00:38:46.431Z,101920.69
2023-04-19T00:39:08.167Z,101935.50
2023-04-19T00:39:30.710Z,101922.31
2023-04-19T00:39:53.268Z,101934.59
2023-04-19T00:40:15.161Z,101935.44
2023-04-19T00:40:37.221Z,101940.94
2023-04-19T00:40:59.889Z,101940.06
2023-04-19T00:41:22.493Z,101936.44
2023-04-19T00:41:44.200Z,101932.28
2023-04-19T00:42:05.997Z,101939.34
2023-04-19T00:42:27.659Z,101935.78
2023-04-19T00:42:50.288Z,101938.50
2023-04-19T00:43:11.894Z,101941.19
2023-04-19T00:43:35.392Z,101936.75
2023-04-19T00:43:57.013Z,101928.69
2023-04-19T00:44:19.606Z,101933.88
2023-04-19T00:44:42.465Z,101938.72
2023-04-19T00:45:04.889Z,101927.19
2023-04-19T00:45:27.932Z,101930.44
2023-04-19T00:45:49.752Z,101932.59
2023-04-19T00:46:12.864Z,101937.78
2023-04-19T00:46:34.967Z,101931.41
2023-04-19T00:46:57.052Z,101934.97
2023-04-19T00:47:19.755Z,101935.84
2023-04-19T00:47:41.718Z,101937.78
2023-04-19T00:48:03.778Z,101921.03
2023-04-19T00:48:25.978Z,101930.75
2023-04-19T00:48:49.892Z,101928.88
2023-04-19T00:49:11.583Z,101935.94
2023-04-19T00:49:33.343Z,101926.19
2023-04-19T00:49:55.613Z,101945.75
2023-04-19T00:50:18.491Z,101933.78
2023-04-19T00:50:40.834Z,101930.13
2023-04-19T00:51:02.658Z,101932.63
2023-04-19T00:51:24.420Z,101931.84
2023-04-19T00:51:48.013Z,101934.41
2023-04-19T00:52:09.613Z,101923.84
2023-04-19T00:52:33.735Z,101936.31
2023-04-19T00:52:55.700Z,101936.19
2023-04-19T00:53:19.086Z,101936.16
2023-04-19T00:53:42.150Z,101933.44
2023-04-19T00:54:04.102Z,101932.47
2023-04-19T00:54:25.926Z,101935.13
2023-04-19T00:54:48.712Z,101927.44
2023-04-19T00:55:11.479Z,101934.56
2023-04-19T00:55:33.353Z,101928.13
2023-04-19T00:55:57.120Z,101921.84
2023-04-19T00:56:22.130Z,101933.28
2023-04-19T00:56:44.996Z,101926.00
2023-04-19T00:57:07.854Z,101927.75
2023-04-19T00:57:30.537Z,101924.16
2023-04-19T00:57:52.415Z,101928.50
2023-04-19T00:58:14.179Z,101928.50
2023-04-19T00:58:39.552Z,101928.69
2023-04-19T00:59:01.513Z,101930.34
2023-04-19T00:59:24.653Z,101927.59
2023-04-19T00:59:46.394Z,101924.88
2023-04-19T01:00:10.015Z,101922.47
2023-04-19T01:00:34.408Z,101932.34
2023-04-19T01:00:56.853Z,101924.31
2023-04-19T01:01:18.699Z,101924.31
2023-04-19T01:01:41.598Z,101924.59
2023-04-19T01:02:03.443Z,101924.56
2023-04-19T01:02:26.201Z,101919.09
2023-04-19T01:02:48.540Z,101921.16
2023-04-19T01:03:10.514Z,101921.84
2023-04-19T01:03:32.459Z,101927.06
2023-04-19T01:03:55.649Z,101927.91
2023-04-19T01:04:17.682Z,101924.59
2023-04-19T01:04:41.676Z,101922.00
2023-04-19T01:05:04.633Z,101926.28
2023-04-19T01:05:27.445Z,101922.59
2023-04-19T01:05:49.955Z,101924.31
2023-04-19T01:06:11.897Z,101916.56
2023-04-19T01:06:39.406Z,101916.41
2023-04-19T01:07:01.833Z,101919.88
2023-04-19T01:07:23.611Z,101921.63
2023-04-19T01:07:46.297Z,101920.69
2023-04-19T01:08:09.332Z,101920.59
2023-04-19T01:08:32.048Z,101919.72
2023-04-19T01:08:53.863Z,101925.00
2023-04-19T01:09:17.413Z,101922.41
2023-04-19T01:09:40.880Z,101915.31
2023-04-19T01:10:03.653Z,101918.84
2023-04-19T01:10:25.559Z,101922.31
2023-04-19T01:10:47.278Z,101922.31
2023-04-19T01:11:10.172Z,101920.59
2023-04-19T01:11:33.628Z,101891.59
2023-04-19T01:11:55.284Z,101916.88
2023-04-19T01:12:18.050Z,101920.44
2023-04-19T01:12:39.978Z,101919.59
2023-04-19T01:13:02.735Z,101908.25
2023-04-19T01:13:25.355Z,101916.97
2023-04-19T01:13:47.220Z,101919.63
2023-04-19T01:14:12.576Z,101917.91
2023-04-19T01:14:34.245Z,101919.72
2023-04-19T01:14:58.449Z,101917.97
2023-04-19T01:15:21.381Z,101922.44
2023-04-19T01:15:46.006Z,101921.56
2023-04-19T01:16:07.967Z,101919.81
2023-04-19T01:16:30.739Z,101920.69
2023-04-19T01:16:53.119Z,101917.13
2023-04-19T01:17:15.013Z,101924.31
2023-04-19T01:17:37.953Z,101922.47
2023-04-19T01:18:03.087Z,101918.00
2023-04-19T01:18:25.862Z,101920.69
2023-04-19T01:18:49.953Z,101919.03
2023-04-19T01:19:12.160Z,101918.97
2023-04-19T01:19:39.513Z,101920.75
2023-04-19T01:20:03.740Z,101916.19
2023-04-19T01:20:26.231Z,101902.38
2023-04-19T01:20:49.260Z,101920.69
2023-04-19T01:21:11.387Z,101922.56
2023-04-19T01:21:34.538Z,101898.84
2023-04-19T01:21:58.331Z,101916.41
2023-04-19T01:22:22.858Z,101919.91
2023-04-19T01:22:45.875Z,101916.41
2023-04-19T01:23:11.439Z,101912.97
2023-04-19T01:23:33.407Z,101917.41
2023-04-19T01:23:58.949Z,101907.66
2023-04-19T01:24:20.837Z,101908.53
2023-04-19T01:24:46.523Z,101916.53
2023-04-19T01:25:10.878Z,101917.41
2023-04-19T01:25:32.722Z,101910.25
2023-04-19T01:25:55.095Z,101909.38
2023-04-19T01:26:18.835Z,101911.06
2023-04-19T01:26:41.541Z,101910.19
2023-04-19T01:27:04.759Z,101912.00
2023-04-19T01:27:27.894Z,101900.44
2023-04-19T01:27:50.606Z,101908.44
2023-04-19T01:28:14.495Z,101894.53
2023-04-19T01:28:36.362Z,101912.03
2023-04-19T01:28:58.026Z,101914.69
2023-04-19T01:29:23.425Z,101897.94
2023-04-19T01:29:49.193Z,101907.63
2023-04-19T01:30:13.189Z,101912.03
2023-04-19T01:30:36.836Z,101911.16
2023-04-19T01:30:58.599Z,101906.69
2023-04-19T01:31:21.266Z,101904.00
2023-04-19T01:31:43.063Z,101903.19
2023-04-19T01:32:05.208Z,101910.28
2023-04-19T01:32:27.910Z,101911.16
2023-04-19T01:32:51.172Z,101910.28
2023-04-19T01:33:12.819Z,101904.00
2023-04-19T01:33:34.465Z,101904.94
2023-04-19T01:33:56.045Z,101912.97
2023-04-19T01:34:17.720Z,101905.84
2023-04-19T01:34:40.523Z,101906.72
2023-04-19T01:35:02.275Z,101906.81
2023-04-19T01:35:25.291Z,101901.44
2023-04-19T01:35:48.358Z,101904.22
2023-04-19T01:36:11.120Z,101907.66
2023-04-19T01:36:32.723Z,101900.56
2023-04-19T01:36:54.280Z,101901.53
2023-04-19T01:37:15.901Z,101906.00
2023-04-19T01:37:39.781Z,101902.41
2023-04-19T01:38:02.096Z,101901.56
2023-04-19T01:38:23.894Z,101900.66
2023-04-19T01:38:47.670Z,101895.31
2023-04-19T01:39:09.341Z,101898.09
2023-04-19T01:39:35.829Z,101900.63
2023-04-19T01:39:57.462Z,101903.28
2023-04-19T01:40:19.498Z,101871.72
2023-04-19T01:40:41.197Z,101900.72
2023-04-19T01:41:03.789Z,101900.72
2023-04-19T01:41:27.257Z,101898.97
2023-04-19T01:41:48.989Z,101892.06
2023-04-19T01:42:10.921Z,101899.84
2023-04-19T01:42:33.462Z,101898.97
2023-04-19T01:42:55.601Z,101891.03
2023-04-19T01:43:18.303Z,101891.09
2023-04-19T01:43:39.942Z,101901.75
2023-04-19T01:44:02.609Z,101896.38
2023-04-19T01:44:25.384Z,101895.63
2023-04-19T01:44:48.184Z,101900.81
2023-04-19T01:45:10.273Z,101892.91
2023-04-19T01:45:33.954Z,101895.53
2023-04-19T01:45:55.768Z,101891.16
2023-04-19T01:46:17.380Z,101894.75
2023-04-19T01:46:39.138Z,101891.25
2023-04-19T01:47:01.054Z,101894.81
2023-04-19T01:47:24.997Z,101896.69
2023-04-19T01:47:46.713Z,101883.47
2023-04-19T01:48:08.572Z,101892.25
2023-04-19T01:48:30.304Z,101875.72
2023-04-19T01:48:52.900Z,101892.22
2023-04-19T01:49:16.393Z,101894.03
2023-04-19T01:49:38.015Z,101892.34
2023-04-19T01:49:59.610Z,101896.66
2023-04-19T01:50:22.227Z,101893.09
2023-04-19T01:50:43.900Z,101893.09
2023-04-19T01:51:05.989Z,101886.00
2023-04-19T01:51:29.659Z,101891.34
2023-04-19T01:51:52.254Z,101885.44
2023-04-19T01:52:15.560Z,101894.09
2023-04-19T01:52:37.238Z,101893.22
2023-04-19T01:53:01.309Z,101887.91
2023-04-19T01:53:24.030Z,101895.03
2023-04-19T01:53:45.688Z,101886.19
2023-04-19T01:54:07.440Z,101891.50
2023-04-19T01:54:29.171Z,101889.69
2023-04-19T01:54:51.836Z,101883.50
2023-04-19T01:55:13.569Z,101888.06
2023-04-19T01:55:35.249Z,101896.81
2023-04-19T01:55:56.859Z,101887.91
2023-04-19T01:56:18.496Z,101886.25
2023-04-19T01:56:41.137Z,101882.75
2023-04-19T01:57:03.044Z,101886.31
2023-04-19T01:57:24.698Z,101884.53
2023-04-19T01:57:46.311Z,101890.91
2023-04-19T01:58:09.794Z,101890.94
2023-04-19T01:58:31.521Z,101888.25
2023-04-19T01:58:53.672Z,101870.78
2023-04-19T01:59:15.339Z,101888.19
2023-04-19T01:59:36.996Z,101888.19
2023-04-19T01:59:59.621Z,101882.03
2023-04-19T02:00:21.486Z,101889.03
2023-04-19T02:00:43.166Z,101888.19
2023-04-19T02:01:04.945Z,101881.88
2023-04-19T02:01:27.306Z,101881.94
2023-04-19T02:01:49.989Z,101883.78
2023-04-19T02:02:13.128Z,101882.13
2023-04-19T02:02:39.237Z,101879.47
2023-04-19T02:03:02.226Z,101878.69
2023-04-19T02:03:25.383Z,101884.84
2023-04-19T02:03:47.329Z,101886.78
2023-04-19T02:04:10.381Z,101891.19
2023-04-19T02:04:34.389Z,101889.41
2023-04-19T02:04:57.271Z,101888.44
2023-04-19T02:05:19.644Z,101893.78
2023-04-19T02:05:42.004Z,101892.09
2023-04-19T02:06:03.797Z,101890.31
2023-04-19T02:06:28.872Z,101893.91
2023-04-19T02:06:52.058Z,101888.56
2023-04-19T02:07:15.208Z,101886.81
2023-04-19T02:07:37.127Z,101888.56
2023-04-19T02:08:01.412Z,101887.69
2023-04-19T02:08:28.095Z,101892.19
2023-04-19T02:08:49.725Z,101883.34
2023-04-19T02:09:12.382Z,101839.72
2023-04-19T02:09:37.576Z,101890.53
2023-04-19T02:10:04.358Z,101852.84
2023-04-19T02:10:27.147Z,101887.13
2023-04-19T02:10:50.292Z,101883.59
2023-04-19T02:11:14.618Z,101891.63
2023-04-19T02:11:37.227Z,101890.75
2023-04-19T02:11:58.810Z,101889.88
2023-04-19T02:12:20.658Z,101871.56
2023-04-19T02:12:43.551Z,101885.34
2023-04-19T02:13:06.235Z,101882.00
2023-04-19T02:13:29.549Z,101875.75
2023-04-19T02:13:52.457Z,101870.44
2023-04-19T02:14:16.763Z,101876.66
2023-04-19T02:14:39.381Z,101881.00
2023-04-19T02:15:03.340Z,101877.38
2023-04-19T02:15:24.919Z,101883.69
2023-04-19T02:15:47.675Z,101886.25
2023-04-19T02:16:13.060Z,101858.97
2023-04-19T02:16:36.440Z,101888.94
2023-04-19T02:17:01.652Z,101865.25
2023-04-19T02:17:23.375Z,101887.13
2023-04-19T02:17:47.748Z,101888.06
2023-04-19T02:18:11.698Z,101879.16
2023-04-19T02:18:40.547Z,101879.22
2023-04-19T02:19:02.360Z,101880.94
2023-04-19T02:19:24.946Z,101884.47
2023-04-19T02:19:47.970Z,101883.56
2023-04-19T02:20:10.826Z,101879.06
2023-04-19T02:20:32.637Z,101879.94
2023-04-19T02:20:57.291Z,101879.09
2023-04-19T02:21:21.829Z,101884.41
2023-04-19T02:21:43.925Z,101883.47
2023-04-19T02:22:09.668Z,101884.31
2023-04-19T02:22:35.216Z,101886.16
2023-04-19T02:22:56.875Z,101888.84
2023-04-19T02:23:18.590Z,101881.66
2023-04-19T02:23:41.577Z,101883.47
2023-04-19T02:24:06.236Z,101885.28
2023-04-19T02:24:27.828Z,101881.72
2023-04-19T02:24:50.219Z,101879.09
2023-04-19T02:25:11.917Z,101879.06
2023-04-19T02:25:33.868Z,101874.66
2023-04-19T02:25:56.484Z,101883.59
2023-04-19T02:26:18.293Z,101857.34
2023-04-19T02:26:40.221Z,101880.97
2023-04-19T02:27:01.955Z,101883.59
2023-04-19T02:27:24.667Z,101880.16
2023-04-19T02:27:46.592Z,101887.38
2023-04-19T02:28:08.394Z,101883.84
2023-04-19T02:28:30.104Z,101886.53
2023-04-19T02:28:53.309Z,101880.38
2023-04-19T02:29:16.843Z,101887.47
2023-04-19T02:29:38.979Z,101879.59
2023-04-19T02:30:00.937Z,101885.75
2023-04-19T02:30:22.750Z,101883.88
2023-04-19T02:30:46.759Z,101879.50
2023-04-19T02:31:08.416Z,101878.50
2023-04-19T02:31:30.243Z,101857.59
2023-04-19T02:31:51.956Z,101885.75
2023-04-19T02:32:14.609Z,101886.63
2023-04-19T02:32:36.510Z,101886.63
2023-04-19T02:33:02.464Z,101884.84
2023-04-19T02:33:26.063Z,101887.47
2023-04-19T02:33:48.277Z,101883.94
2023-04-19T02:34:12.266Z,101894.53
2023-04-19T02:34:34.763Z,101856.88
2023-04-19T02:34:57.136Z,101887.47
2023-04-19T02:35:19.472Z,101876.00
2023-04-19T02:35:42.554Z,101882.94
2023-04-19T02:36:05.062Z,101888.31
2023-04-19T02:36:30.733Z,101879.41
2023-04-19T02:36:52.984Z,101878.50
2023-04-19T02:37:18.360Z,101881.13
2023-04-19T02:37:44.477Z,101883.84
2023-04-19T02:38:06.308Z,101883.78
2023-04-19T02:38:29.971Z,101880.28
2023-04-19T02:38:53.951Z,101893.63
2023-04-19T02:39:16.784Z,101890.09
2023-04-19T02:39:38.691Z,101887.47
2023-04-19T02:40:01.042Z,101884.84
2023-04-19T02:40:28.050Z,101891.97
2023-04-19T02:40:50.085Z,101887.44
2023-04-19T02:41:11.734Z,101888.25
2023-04-19T02:41:36.619Z,101890.06
2023-04-19T02:42:00.145Z,101886.47
2023-04-19T02:42:21.813Z,101881.19
2023-04-19T02:42:43.894Z,101887.47
2023-04-19T02:43:05.675Z,101887.53
2023-04-19T02:43:29.630Z,101875.22
2023-04-19T02:43:51.922Z,101884.78
2023-04-19T02:44:14.815Z,101876.97
2023-04-19T02:44:38.222Z,101871.81
2023-04-19T02:45:01.185Z,101888.44
2023-04-19T02:45:23.057Z,101886.69
2023-04-19T02:45:45.895Z,101885.00
2023-04-19T02:46:08.400Z,101845.59
2023-04-19T02:46:30.475Z,101879.84
2023-04-19T02:46:54.615Z,101886.88
2023-04-19T02:47:17.511Z,101882.41
2023-04-19T02:47:40.618Z,101888.72
2023-04-19T02:48:04.834Z,101881.47
2023-04-19T02:48:29.170Z,101882.34
2023-04-19T02:48:50.845Z,101883.13
2023-04-19T02:49:13.595Z,101852.38
2023-04-19T02:49:39.911Z,101876.06
2023-04-19T02:50:06.025Z,101877.63
2023-04-19T02:50:34.744Z,101881.16
2023-04-19T02:50:56.411Z,101889.22
2023-04-19T02:51:18.986Z,101879.41
2023-04-19T02:51:42.692Z,101884.75
2023-04-19T02:52:05.807Z,101875.94
2023-04-19T02:52:30.348Z,101853.97
2023-04-19T02:52:52.088Z,101888.19
2023-04-19T02:53:16.488Z,101864.53
2023-04-19T02:53:39.773Z,101880.16
2023-04-19T02:54:05.233Z,101884.59
2023-04-19T02:54:26.991Z,101882.81
2023-04-19T02:54:49.918Z,101877.59
2023-04-19T02:55:11.800Z,101865.38
2023-04-19T02:55:33.960Z,101872.38
2023-04-19T02:56:03.849Z,101880.16
2023-04-19T02:56:26.585Z,101889.00
2023-04-19T02:56:49.462Z,101886.34
2023-04-19T02:57:12.021Z,101887.16
2023-04-19T02:57:36.086Z,101877.38
2023-04-19T02:57:58.685Z,101884.47
2023-04-19T02:58:21.335Z,101887.19
2023-04-19T02:59:00.930Z,101876.56
2023-04-19T02:59:22.591Z,101867.81
2023-04-19T02:59:44.570Z,101888.13
2023-04-19T03:00:10.594Z,101880.13
2023-04-19T03:00:34.535Z,101877.50
2023-04-19T03:01:03.827Z,101881.91
2023-04-19T03:01:27.672Z,101884.53
2023-04-19T03:01:50.645Z,101880.16
2023-04-19T03:02:13.326Z,101870.44
2023-04-19T03:02:35.265Z,101875.63
2023-04-19T03:02:57.726Z,101882.66
2023-04-19T03:03:24.487Z,101880.94
2023-04-19T03:03:46.573Z,101862.47
2023-04-19T03:04:08.529Z,101863.25
2023-04-19T03:04:32.143Z,101878.25
2023-04-19T03:04:54.023Z,101885.41
2023-04-19T03:05:16.891Z,101880.13
2023-04-19T03:05:38.514Z,101875.81
2023-04-19T03:06:00.195Z,101882.03
2023-04-19T03:06:23.935Z,101880.38
2023-04-19T03:06:45.573Z,101878.50
2023-04-19T03:07:09.012Z,101887.44
2023-04-19T03:07:31.336Z,101877.63
2023-04-19T03:07:53.651Z,101880.38
2023-04-19T03:08:16.238Z,101873.28
2023-04-19T03:08:39.278Z,101880.44
2023-04-19T03:09:02.285Z,101877.75
2023-04-19T03:09:23.952Z,101876.97
2023-04-19T03:09:46.578Z,101877.91
2023-04-19T03:10:09.344Z,101876.97
2023-04-19T03:10:31.145Z,101878.09
2023-04-19T03:10:52.758Z,101878.94
2023-04-19T03:11:17.258Z,101887.84
2023-04-19T03:11:38.975Z,101868.44
2023-04-19T03:12:01.237Z,101878.94
2023-04-19T03:12:22.858Z,101871.84
2023-04-19T03:12:44.463Z,101873.72
2023-04-19T03:13:07.444Z,101878.06
2023-04-19T03:13:29.204Z,101874.53
2023-04-19T03:13:50.890Z,101870.97
2023-04-19T03:14:12.686Z,101872.03
2023-04-19T03:14:35.771Z,101870.22
2023-04-19T03:14:58.108Z,101872.88
2023-04-19T03:15:20.706Z,101875.59
2023-04-19T03:15:43.620Z,101881.75
2023-04-19T03:16:06.917Z,101871.97
2023-04-19T03:16:30.472Z,101876.41
2023-04-19T03:16:52.412Z,101871.06
2023-04-19T03:17:17.412Z,101867.44
2023-04-19T03:17:40.032Z,101867.53
2023-04-19T03:18:02.400Z,101859.81
2023-04-19T03:18:24.805Z,101868.59
2023-04-19T03:18:50.601Z,101802.19
2023-04-19T03:19:15.980Z,101858.31
2023-04-19T03:19:43.703Z,101866.94
2023-04-19T03:20:10.923Z,101863.34
2023-04-19T03:20:34.384Z,101863.44
2023-04-19T03:20:57.256Z,101868.78
2023-04-19T03:21:21.926Z,101870.69
2023-04-19T03:21:48.684Z,101865.34
2023-04-19T03:22:13.820Z,101839.13
2023-04-19T03:22:35.537Z,101855.69
2023-04-19T03:22:57.894Z,101854.94
2023-04-19T03:23:20.937Z,101862.69
2023-04-19T03:23:46.171Z,101865.31
2023-04-19T03:24:12.320Z,101865.16
2023-04-19T03:24:38.206Z,101856.34
2023-04-19T03:25:21.298Z,101852.84
2023-04-19T03:25:51.119Z,101865.13
2023-04-19T03:26:26.760Z,101862.44
2023-04-19T03:26:52.026Z,101861.59
2023-04-19T03:27:18.534Z,101865.19
2023-04-19T03:27:45.216Z,101867.06
2023-04-19T03:28:09.540Z,101866.06
2023-04-19T03:29:01.447Z,101867.81
2023-04-19T03:29:29.707Z,101850.03
2023-04-19T03:29:55.650Z,101856.25
2023-04-19T03:30:19.970Z,101859.06
2023-04-19T03:30:42.536Z,101860.69
2023-04-19T03:31:04.386Z,101866.84
2023-04-19T03:31:26.135Z,101858.88
2023-04-19T03:31:48.888Z,101861.41
2023-04-19T03:32:10.723Z,101867.69
2023-04-19T03:32:33.461Z,101860.53
2023-04-19T03:32:55.688Z,101864.09
2023-04-19T03:33:17.364Z,101863.19
2023-04-19T03:33:40.194Z,101865.75
2023-04-19T03:34:01.908Z,101860.28
2023-04-19T03:34:29.715Z,101862.94
2023-04-19T03:34:52.348Z,101859.41
2023-04-19T03:35:14.060Z,101850.59
2023-04-19T03:35:35.863Z,101859.34
2023-04-19T03:36:05.914Z,101868.22
2023-04-19T03:36:28.810Z,101857.59
2023-04-19T03:36:50.674Z,101860.25
2023-04-19T03:37:13.748Z,101853.28
2023-04-19T03:37:35.623Z,101858.47
2023-04-19T03:37:58.350Z,101868.31
2023-04-19T03:38:20.983Z,101862.19
2023-04-19T03:38:44.338Z,101866.69
2023-04-19T03:39:12.692Z,101859.69
2023-04-19T03:39:36.285Z,101860.72
2023-04-19T03:40:01.779Z,101863.59
2023-04-19T03:40:28.353Z,101853.72
2023-04-19T03:40:50.237Z,101859.03
2023-04-19T03:41:19.044Z,101861.59
2023-04-19T03:41:41.905Z,101863.44
2023-04-19T03:42:28.738Z,101862.38
2023-04-19T03:43:12.531Z,101842.91
2023-04-19T03:43:34.541Z,101862.34
2023-04-19T03:43:57.599Z,101856.25
2023-04-19T03:44:19.802Z,101855.28
2023-04-19T03:44:42.122Z,101851.66
2023-04-19T03:45:06.351Z,101852.50
2023-04-19T03:45:34.181Z,101862.38
2023-04-19T03:45:57.416Z,101853.47
2023-04-19T03:46:19.266Z,101849.84
2023-04-19T03:46:46.340Z,101855.06
2023-04-19T03:47:09.906Z,101855.16
2023-04-19T03:47:37.301Z,101840.19
2023-04-19T03:48:02.805Z,101857.81
2023-04-19T03:48:26.459Z,101851.59
2023-04-19T03:48:49.219Z,101851.63
2023-04-19T03:49:12.316Z,101860.50
2023-04-19T03:49:37.311Z,101835.16
2023-04-19T03:50:00.405Z,101852.66
2023-04-19T03:50:25.993Z,101852.69
2023-04-19T03:50:51.497Z,101842.16
2023-04-19T03:51:16.035Z,101850.91
2023-04-19T03:51:37.737Z,101851.66
2023-04-19T03:52:01.621Z,101856.97
2023-04-19T03:52:25.820Z,101850.78
2023-04-19T03:52:47.562Z,101853.44
2023-04-19T03:53:10.315Z,101857.09
2023-04-19T03:53:32.743Z,101853.56
2023-04-19T03:53:59.286Z,101848.25
2023-04-19T03:54:25.525Z,101847.59
2023-04-19T03:54:48.107Z,101855.63
2023-04-19T03:55:21.719Z,101852.94
2023-04-19T03:55:43.547Z,101854.69
2023-04-19T03:56:06.273Z,101836.31
2023-04-19T03:56:30.161Z,101853.03
2023-04-19T03:56:51.862Z,101855.66
2023-04-19T03:57:17.772Z,101857.47
2023-04-19T03:57:40.250Z,101846.94
2023-04-19T03:58:11.068Z,101852.13
2023-04-19T03:58:42.880Z,101856.63
2023-04-19T03:59:05.754Z,101854.00
2023-04-19T03:59:31.292Z,101847.78
2023-04-19T03:59:56.080Z,101860.25
2023-04-19T04:00:18.642Z,101857.59
2023-04-19T04:00:48.418Z,101861.16
2023-04-19T04:01:19.986Z,101854.97
2023-04-19T04:01:42.605Z,101861.19
2023-04-19T04:02:07.799Z,101854.91
2023-04-19T04:02:32.134Z,101857.47
2023-04-19T04:02:55.598Z,101848.59
2023-04-19T04:03:17.634Z,101855.69
2023-04-19T04:03:40.121Z,101852.16
2023-04-19T04:04:05.140Z,101855.81
2023-04-19T04:04:27.369Z,101854.91
2023-04-19T04:04:55.989Z,101860.25
2023-04-19T04:05:20.217Z,101860.13
2023-04-19T04:05:43.514Z,101851.28
2023-04-19T04:06:05.679Z,101851.22
2023-04-19T04:06:27.879Z,101846.13
2023-04-19T04:06:52.135Z,101858.34
2023-04-19T04:07:13.781Z,101839.13
2023-04-19T04:07:35.475Z,101856.53
2023-04-19T04:07:57.863Z,101852.16
2023-04-19T04:08:21.529Z,101856.72
2023-04-19T04:08:43.191Z,101854.16
2023-04-19T04:09:04.825Z,101842.72
2023-04-19T04:09:27.774Z,101827.03
2023-04-19T04:09:50.638Z,101851.47
2023-04-19T04:10:12.292Z,101856.84
2023-04-19T04:10:37.414Z,101863.00
2023-04-19T04:10:59.280Z,101862.06
2023-04-19T04:11:21.193Z,101854.09
2023-04-19T04:11:44.908Z,101860.31
2023-04-19T04:12:07.167Z,101854.06
2023-04-19T04:12:28.944Z,101855.81
2023-04-19T04:12:51.236Z,101855.81
2023-04-19T04:13:20.324Z,101859.38
2023-04-19T04:13:51.152Z,101855.78
2023-04-19T04:14:16.885Z,101858.47
2023-04-19T04:14:39.633Z,101855.81
2023-04-19T04:15:03.261Z,101859.38
2023-04-19T04:15:25.837Z,101854.78
2023-04-19T04:15:48.889Z,101857.56
2023-04-19T04:16:11.457Z,101856.75
2023-04-19T04:16:34.582Z,101855.78
2023-04-19T04:16:56.243Z,101859.41
2023-04-19T04:17:17.969Z,101859.44
2023-04-19T04:17:39.693Z,101849.63
2023-04-19T04:18:02.012Z,101853.16
2023-04-19T04:18:27.018Z,101853.16
2023-04-19T04:18:48.781Z,101854.06
2023-04-19T04:19:10.767Z,101860.25
2023-04-19T04:19:35.537Z,101854.78
2023-04-19T04:19:58.370Z,101853.91
2023-04-19T04:20:23.529Z,101854.69
2023-04-19T04:20:49.576Z,101843.19
2023-04-19T04:21:11.322Z,101851.09
2023-04-19T04:21:37.202Z,101834.56
2023-04-19T04:22:00.789Z,101855.56
2023-04-19T04:22:24.686Z,101847.63
2023-04-19T04:22:47.198Z,101837.84
2023-04-19T04:23:12.288Z,101848.38
2023-04-19T04:23:38.511Z,101848.53
2023-04-19T04:24:04.706Z,101852.75
2023-04-19T04:24:41.372Z,101843.00
2023-04-19T04:25:24.263Z,101843.91
2023-04-19T04:25:46.131Z,101844.94
2023-04-19T04:26:09.968Z,101849.16
2023-04-19T04:27:00.789Z,101854.59